createdAt,value
2023-10-02T00:02:34.558Z,20.77
2023-10-02T00:05:07.403Z,19.05
2023-10-02T00:07:37.084Z,20.33
2023-10-02T00:10:07.446Z,25.73
2023-10-02T00:15:13.591Z,24.17
2023-10-02T00:17:46.220Z,18.58
2023-10-02T00:20:22.939Z,18.13
2023-10-02T00:22:52.311Z,22.02
2023-10-02T00:25:28.758Z,17.10
2023-10-02T00:28:01.223Z,18.98
2023-10-02T00:30:37.857Z,19.98
2023-10-02T00:33:13.067Z,18.95
2023-10-02T00:35:52.902Z,27.73
2023-10-02T00:38:21.712Z,20.07
2023-10-02T00:40:50.118Z,19.45
2023-10-02T00:43:41.577Z,26.40
2023-10-02T00:46:24.774Z,22.38
2023-10-02T00:48:54.329Z,18.17
2023-10-02T00:51:23.143Z,21.90
2023-10-02T00:53:55.214Z,26.17
2023-10-02T00:56:25.267Z,23.50
2023-10-02T00:59:00.247Z,20.35
2023-10-02T01:01:31.058Z,25.13
2023-10-02T01:07:06.070Z,15.55
2023-10-02T01:09:36.334Z,16.02
2023-10-02T01:12:07.237Z,20.40
2023-10-02T01:14:52.320Z,22.77
2023-10-02T01:17:23.503Z,24.58
2023-10-02T01:22:29.862Z,19.17
2023-10-02T01:25:15.624Z,18.88
2023-10-02T01:27:48.838Z,18.67
2023-10-02T01:30:18.437Z,17.25
2023-10-02T01:33:13.343Z,24.65
2023-10-02T01:35:50.746Z,24.30
2023-10-02T01:38:31.025Z,18.60
2023-10-02T01:41:06.115Z,24.40
2023-10-02T01:43:40.844Z,20.45
2023-10-02T01:46:10.141Z,22.58
2023-10-02T01:48:41.736Z,25.27
2023-10-02T01:51:27.568Z,16.92
2023-10-02T01:53:58.773Z,21.77
2023-10-02T01:56:30.853Z,17.00
2023-10-02T01:59:12.136Z,23.10
2023-10-02T02:01:54.165Z,23.60
2023-10-02T02:04:26.016Z,16.00
2023-10-02T02:06:56.443Z,18.15
2023-10-02T02:09:26.348Z,19.17
2023-10-02T02:12:17.204Z,19.63
2023-10-02T02:14:53.033Z,16.33
2023-10-02T02:17:26.715Z,13.60
2023-10-02T02:19:55.955Z,19.55
2023-10-02T02:22:27.574Z,16.80
2023-10-02T02:24:59.850Z,18.40
2023-10-02T02:27:30.364Z,19.75
2023-10-02T02:32:46.245Z,15.02
2023-10-02T02:35:16.921Z,13.45
2023-10-02T02:37:45.934Z,14.68
2023-10-02T02:40:27.873Z,19.85
2023-10-02T02:43:00.024Z,13.88
2023-10-02T02:45:30.825Z,15.85
2023-10-02T02:48:06.126Z,20.02
2023-10-02T02:50:37.097Z,18.73
2023-10-02T02:53:23.420Z,22.13
2023-10-02T02:56:16.336Z,21.13
2023-10-02T02:58:49.731Z,16.67
2023-10-02T03:01:24.518Z,19.08
2023-10-02T03:03:53.948Z,17.55
2023-10-02T03:06:24.773Z,18.63
2023-10-02T03:08:54.177Z,20.80
2023-10-02T03:11:30.407Z,14.35
2023-10-02T03:14:13.901Z,16.52
2023-10-02T03:16:46.409Z,16.90
2023-10-02T03:19:17.764Z,14.55
2023-10-02T03:21:48.704Z,15.90
2023-10-02T03:24:20.692Z,19.38
2023-10-02T03:26:54.847Z,16.77
2023-10-02T03:29:25.504Z,13.25
2023-10-02T03:31:54.521Z,13.77
2023-10-02T03:34:29.807Z,19.60
2023-10-02T03:37:02.671Z,15.70
2023-10-02T03:39:49.340Z,13.02
2023-10-02T03:42:23.642Z,14.55
2023-10-02T03:44:55.793Z,17.17
2023-10-02T03:47:25.128Z,16.58
2023-10-02T03:50:01.922Z,16.10
2023-10-02T03:52:32.185Z,14.07
2023-10-02T03:55:15.706Z,16.90
2023-10-02T03:57:52.385Z,11.93
2023-10-02T04:00:27.270Z,14.68
2023-10-02T04:02:58.465Z,14.60
2023-10-02T04:05:35.375Z,16.05
2023-10-02T04:08:23.564Z,15.25
2023-10-02T04:10:57.632Z,17.30
2023-10-02T04:13:28.844Z,14.65
2023-10-02T04:16:13.019Z,16.30
2023-10-02T04:19:00.307Z,15.55
2023-10-02T04:21:30.367Z,21.50
2023-10-02T04:23:59.267Z,16.73
2023-10-02T04:26:30.514Z,17.55
2023-10-02T04:29:14.823Z,18.05
2023-10-02T04:31:46.127Z,16.75
2023-10-02T04:34:25.213Z,19.80
2023-10-02T04:36:54.590Z,17.40
2023-10-02T04:39:41.016Z,19.45
2023-10-02T04:42:16.026Z,22.02
2023-10-02T04:44:48.844Z,25.60
2023-10-02T04:47:20.685Z,17.45
2023-10-02T04:50:08.274Z,18.33
2023-10-02T04:52:59.070Z,21.70
2023-10-02T04:55:32.790Z,15.15
2023-10-02T04:58:05.875Z,16.80
2023-10-02T05:00:37.566Z,15.57
2023-10-02T05:03:11.285Z,23.00
2023-10-02T05:05:43.551Z,15.27
2023-10-02T05:08:20.421Z,19.95
2023-10-02T05:10:51.406Z,19.35
2023-10-02T05:13:40.333Z,22.90
2023-10-02T05:16:12.583Z,21.13
2023-10-02T05:18:48.897Z,22.40
2023-10-02T05:21:18.965Z,20.08
2023-10-02T05:23:58.201Z,20.90
2023-10-02T05:26:35.956Z,16.58
2023-10-02T05:29:09.772Z,14.23
2023-10-02T05:31:42.717Z,20.70
2023-10-02T05:34:23.284Z,17.52
2023-10-02T05:37:14.073Z,21.48
2023-10-02T05:39:43.744Z,15.43
2023-10-02T05:42:15.257Z,18.00
2023-10-02T05:44:45.551Z,15.75
2023-10-02T05:47:17.796Z,19.05
2023-10-02T05:49:51.083Z,24.50
2023-10-02T05:52:22.128Z,20.73
2023-10-02T05:54:55.482Z,16.33
2023-10-02T05:57:30.207Z,14.23
2023-10-02T06:00:01.786Z,13.32
2023-10-02T06:02:34.063Z,19.83
2023-10-02T06:05:13.487Z,17.45
2023-10-02T06:07:45.211Z,18.38
2023-10-02T06:10:27.175Z,22.98
2023-10-02T06:13:04.935Z,17.35
2023-10-02T06:15:48.677Z,14.43
2023-10-02T06:18:26.362Z,21.85
2023-10-02T06:21:03.268Z,17.63
2023-10-02T06:23:39.201Z,23.42
2023-10-02T06:26:11.316Z,21.83
2023-10-02T06:28:40.928Z,25.25
2023-10-02T06:31:10.195Z,21.33
2023-10-02T06:33:39.317Z,23.00
2023-10-02T06:36:10.631Z,20.15
2023-10-02T06:38:39.546Z,23.95
2023-10-02T06:41:14.595Z,16.42
2023-10-02T06:43:43.369Z,19.33
2023-10-02T06:46:15.325Z,16.25
2023-10-02T06:48:45.644Z,23.65
2023-10-02T06:53:45.139Z,18.33
2023-10-02T06:56:14.873Z,17.35
2023-10-02T06:58:58.777Z,20.27
2023-10-02T07:01:29.591Z,14.27
2023-10-02T07:04:10.767Z,14.60
2023-10-02T07:06:41.405Z,17.70
2023-10-02T07:09:14.060Z,17.65
2023-10-02T07:11:44.589Z,19.77
2023-10-02T07:14:13.985Z,17.05
2023-10-02T07:16:43.876Z,15.23
2023-10-02T07:19:13.443Z,15.10
2023-10-02T07:21:44.210Z,30.10
2023-10-02T07:24:29.665Z,22.30
2023-10-02T07:27:00.794Z,14.15
2023-10-02T07:29:40.610Z,16.95
2023-10-02T07:32:12.449Z,11.70
2023-10-02T07:34:40.896Z,15.93
2023-10-02T07:37:14.694Z,18.83
2023-10-02T07:39:43.884Z,11.80
2023-10-02T07:42:13.087Z,12.32
2023-10-02T07:44:42.735Z,18.70
2023-10-02T07:47:19.534Z,17.23
2023-10-02T07:49:51.305Z,11.07
2023-10-02T07:52:39.642Z,14.52
2023-10-02T07:55:12.389Z,18.45
2023-10-02T07:57:41.499Z,13.35
2023-10-02T08:00:31.842Z,21.25
2023-10-02T08:03:03.972Z,13.85
2023-10-02T08:05:35.710Z,14.32
2023-10-02T08:08:10.720Z,16.52
2023-10-02T08:10:51.594Z,14.18
2023-10-02T08:13:33.765Z,17.67
2023-10-02T08:16:06.124Z,12.98
2023-10-02T08:18:35.070Z,12.43
2023-10-02T08:21:05.461Z,14.70
2023-10-02T08:23:35.758Z,12.15
2023-10-02T08:31:29.326Z,16.50
2023-10-02T08:34:11.455Z,12.52
2023-10-02T08:36:43.575Z,15.00
2023-10-02T08:41:52.398Z,15.25
2023-10-02T08:44:24.005Z,14.20
2023-10-02T08:46:56.782Z,12.10
2023-10-02T08:49:27.712Z,14.43
2023-10-02T08:51:58.765Z,12.43
2023-10-02T08:54:30.688Z,10.55
2023-10-02T08:57:08.340Z,11.90
2023-10-02T08:59:43.965Z,11.07
2023-10-02T09:02:15.930Z,7.18
2023-10-02T09:05:11.391Z,11.65
2023-10-02T09:08:02.676Z,8.93
2023-10-02T09:10:42.567Z,12.48
2023-10-02T09:13:16.048Z,10.13
2023-10-02T09:15:48.180Z,9.45
2023-10-02T09:18:35.734Z,6.43
2023-10-02T09:21:15.626Z,12.85
2023-10-02T09:23:53.330Z,13.20
2023-10-02T09:26:26.781Z,12.75
2023-10-02T09:29:02.892Z,10.82
2023-10-02T09:31:34.680Z,12.38
2023-10-02T09:34:22.841Z,13.43
2023-10-02T09:37:42.988Z,9.38
2023-10-02T09:40:16.091Z,10.13
2023-10-02T09:42:49.861Z,8.45
2023-10-02T09:45:32.739Z,7.43
2023-10-02T09:48:07.361Z,7.10
2023-10-02T09:50:42.602Z,9.90
2023-10-02T09:53:12.563Z,10.77
2023-10-02T09:55:57.708Z,9.98
2023-10-02T09:58:38.847Z,8.50
2023-10-02T10:01:38.917Z,12.32
2023-10-02T10:04:21.688Z,6.32
2023-10-02T10:07:08.375Z,9.02
2023-10-02T10:09:51.118Z,7.38
2023-10-02T10:12:33.461Z,5.78
2023-10-02T10:15:25.983Z,12.85
2023-10-02T10:17:58.150Z,7.60
2023-10-02T10:20:29.066Z,8.20
2023-10-02T10:22:58.006Z,8.43
2023-10-02T10:25:46.554Z,8.15
2023-10-02T10:28:29.066Z,8.75
2023-10-02T10:31:03.584Z,7.95
2023-10-02T10:33:36.888Z,7.72
2023-10-02T10:36:43.371Z,6.80
2023-10-02T10:39:53.580Z,5.97
2023-10-02T10:42:25.401Z,11.00
2023-10-02T10:44:58.580Z,7.85
2023-10-02T10:47:41.143Z,6.25
2023-10-02T10:50:23.995Z,5.80
2023-10-02T10:53:02.641Z,7.65
2023-10-02T10:55:34.959Z,9.82
2023-10-02T11:00:40.681Z,6.65
2023-10-02T11:03:13.139Z,8.23
2023-10-02T11:05:42.521Z,7.20
2023-10-02T11:08:26.816Z,11.27
2023-10-02T11:11:07.920Z,6.15
2023-10-02T11:13:54.564Z,7.18
2023-10-02T11:16:35.788Z,13.55
2023-10-02T11:19:36.384Z,12.95
2023-10-02T11:22:16.374Z,6.20
2023-10-02T11:24:49.837Z,9.00
2023-10-02T11:27:19.497Z,5.38
2023-10-02T11:30:03.023Z,9.45
2023-10-02T11:33:01.644Z,6.47
2023-10-02T11:35:31.358Z,9.23
2023-10-02T11:38:02.645Z,7.65
2023-10-02T11:40:34.129Z,13.05
2023-10-02T11:43:03.501Z,8.50
2023-10-02T11:45:34.185Z,5.72
2023-10-02T11:48:03.243Z,8.98
2023-10-02T11:50:32.250Z,8.00
2023-10-02T11:53:01.940Z,8.57
2023-10-02T11:55:30.360Z,6.30
2023-10-02T11:58:00.697Z,5.40
2023-10-02T12:00:29.762Z,7.95
2023-10-02T12:03:01.224Z,10.77
2023-10-02T12:05:31.705Z,9.07
2023-10-02T12:08:01.073Z,8.27
2023-10-02T12:10:30.185Z,6.95
2023-10-02T12:13:03.484Z,10.85
2023-10-02T12:15:32.515Z,8.18
2023-10-02T12:18:02.417Z,9.10
2023-10-02T12:23:01.848Z,7.22
2023-10-02T12:25:30.925Z,6.18
2023-10-02T12:28:02.064Z,9.35
2023-10-02T12:30:36.021Z,9.50
2023-10-02T12:33:05.945Z,7.45
2023-10-02T12:35:35.445Z,8.27
2023-10-02T12:38:04.770Z,5.90
2023-10-02T12:40:35.404Z,6.20
2023-10-02T12:43:06.538Z,5.03
2023-10-02T12:45:37.742Z,13.23
2023-10-02T12:48:08.775Z,7.57
2023-10-02T12:50:41.406Z,8.55
2023-10-02T12:53:12.467Z,6.68
2023-10-02T12:55:44.673Z,9.68
2023-10-02T12:58:15.650Z,8.43
2023-10-02T13:00:44.569Z,6.57
2023-10-02T13:03:13.562Z,6.72
2023-10-02T13:05:44.204Z,6.00
2023-10-02T13:08:13.217Z,9.48
2023-10-02T13:10:43.358Z,12.35
2023-10-02T13:13:13.243Z,7.65
2023-10-02T13:15:43.896Z,11.10
2023-10-02T13:18:13.157Z,5.45
2023-10-02T13:20:42.125Z,9.13
2023-10-02T13:23:11.131Z,9.38
2023-10-02T13:25:41.240Z,7.03
2023-10-02T13:28:13.078Z,8.20
2023-10-02T13:30:44.059Z,9.93
2023-10-02T13:33:14.304Z,8.68
2023-10-02T13:35:45.602Z,6.35
2023-10-02T13:38:15.257Z,6.05
2023-10-02T13:40:43.755Z,6.28
2023-10-02T13:43:13.049Z,9.63
2023-10-02T13:45:47.036Z,6.67
2023-10-02T13:48:17.768Z,6.60
2023-10-02T13:51:02.492Z,8.02
2023-10-02T13:53:33.973Z,7.78
2023-10-02T13:56:10.419Z,13.07
2023-10-02T13:58:40.416Z,9.93
2023-10-02T14:06:09.659Z,7.40
2023-10-02T14:08:40.728Z,6.85
2023-10-02T14:11:10.191Z,14.35
2023-10-02T14:13:39.059Z,7.47
2023-10-02T14:16:08.803Z,8.73
2023-10-02T14:18:40.063Z,8.07
2023-10-02T14:21:10.804Z,5.88
2023-10-02T14:23:40.423Z,5.85
2023-10-02T14:26:10.541Z,9.57
2023-10-02T14:28:38.978Z,5.40
2023-10-02T14:31:08.995Z,13.27
2023-10-02T14:36:11.276Z,7.35
2023-10-02T14:38:40.933Z,10.43
2023-10-02T14:41:10.702Z,7.20
2023-10-02T14:43:39.351Z,11.00
2023-10-02T14:46:08.504Z,11.02
2023-10-02T14:48:46.726Z,5.35
2023-10-02T14:51:19.195Z,10.20
2023-10-02T14:53:48.209Z,9.90
2023-10-02T14:56:17.268Z,7.43
2023-10-02T14:58:49.379Z,8.10
2023-10-02T15:01:20.413Z,7.38
2023-10-02T15:03:50.576Z,8.45
2023-10-02T15:06:20.868Z,8.07
2023-10-02T15:11:19.628Z,9.02
2023-10-02T15:13:48.302Z,6.50
2023-10-02T15:16:17.356Z,8.27
2023-10-02T15:18:48.238Z,8.45
2023-10-02T15:21:18.399Z,4.47
2023-10-02T15:26:20.060Z,6.00
2023-10-02T15:28:50.475Z,6.35
2023-10-02T15:31:19.971Z,7.28
2023-10-02T15:33:48.816Z,5.80
2023-10-02T15:36:18.953Z,5.60
2023-10-02T15:41:28.824Z,9.27
2023-10-02T15:43:59.028Z,6.50
2023-10-02T15:46:28.282Z,5.05
2023-10-02T15:48:57.193Z,6.82
2023-10-02T15:51:26.601Z,5.75
2023-10-02T15:53:57.507Z,5.87
2023-10-02T15:56:28.886Z,7.05
2023-10-02T15:58:57.478Z,6.95
2023-10-02T16:01:26.948Z,7.72
2023-10-02T16:03:56.084Z,11.67
2023-10-02T16:06:25.331Z,7.00
2023-10-02T16:08:55.617Z,6.13
2023-10-02T16:11:27.439Z,4.22
2023-10-02T16:13:57.772Z,8.48
2023-10-02T16:16:26.735Z,6.72
2023-10-02T16:18:55.569Z,7.53
2023-10-02T16:21:26.724Z,7.13
2023-10-02T16:23:55.549Z,6.35
2023-10-02T16:26:26.005Z,4.07
2023-10-02T16:28:54.450Z,6.38
2023-10-02T16:31:26.881Z,10.82
2023-10-02T16:33:56.328Z,7.53
2023-10-02T16:36:26.525Z,11.98
2023-10-02T16:41:31.248Z,5.38
2023-10-02T16:44:00.325Z,5.72
2023-10-02T16:46:29.258Z,8.10
2023-10-02T16:48:58.412Z,5.30
2023-10-02T16:51:27.289Z,5.97
2023-10-02T16:53:56.816Z,7.03
2023-10-02T16:56:25.766Z,6.93
2023-10-02T16:58:55.892Z,13.55
2023-10-02T17:01:24.844Z,10.35
2023-10-02T17:03:55.387Z,10.07
2023-10-02T17:06:27.404Z,6.70
2023-10-02T17:08:56.280Z,6.32
2023-10-02T17:11:28.338Z,10.43
2023-10-02T17:13:58.271Z,7.95
2023-10-02T17:18:55.753Z,6.13
2023-10-02T17:21:31.560Z,12.68
2023-10-02T17:24:01.673Z,8.38
2023-10-02T17:26:31.814Z,18.58
2023-10-02T17:29:04.036Z,6.50
2023-10-02T17:31:32.834Z,13.63
2023-10-02T17:34:01.792Z,11.80
2023-10-02T17:36:31.075Z,11.82
2023-10-02T17:39:01.006Z,11.27
2023-10-02T17:41:30.065Z,8.77
2023-10-02T17:43:58.917Z,13.55
2023-10-02T17:46:28.978Z,11.10
2023-10-02T17:48:57.793Z,16.70
2023-10-02T17:51:27.020Z,8.00
2023-10-02T17:53:56.395Z,12.57
2023-10-02T17:56:26.979Z,8.48
2023-10-02T17:58:56.242Z,12.23
2023-10-02T18:01:25.050Z,11.32
2023-10-02T18:03:55.463Z,10.10
2023-10-02T18:06:24.314Z,10.82
2023-10-02T18:08:53.320Z,10.88
2023-10-02T18:11:26.492Z,12.13
2023-10-02T18:13:55.058Z,12.15
2023-10-02T18:16:24.457Z,12.23
2023-10-02T18:18:54.976Z,12.20
2023-10-02T18:21:23.760Z,9.23
2023-10-02T18:23:53.021Z,8.70
2023-10-02T18:26:22.337Z,15.68
2023-10-02T18:28:50.710Z,11.13
2023-10-02T18:31:19.758Z,10.50
2023-10-02T18:33:48.757Z,9.05
2023-10-02T18:36:18.973Z,12.00
2023-10-02T18:41:17.837Z,9.55
2023-10-02T18:43:47.130Z,13.05
2023-10-02T18:46:16.165Z,9.43
2023-10-02T18:48:45.813Z,12.75
2023-10-02T18:51:20.137Z,13.57
2023-10-02T18:53:53.203Z,8.73
2023-10-02T18:56:22.416Z,11.75
2023-10-02T18:58:50.829Z,9.38
2023-10-02T19:01:20.007Z,11.48
2023-10-02T19:03:48.988Z,12.65
2023-10-02T19:06:20.383Z,12.70
2023-10-02T19:08:49.511Z,14.75
2023-10-02T19:11:20.081Z,13.30
2023-10-02T19:13:48.548Z,8.13
2023-10-02T19:16:18.576Z,12.43
2023-10-02T19:18:47.792Z,8.18
2023-10-02T19:21:18.136Z,10.20
2023-10-02T19:23:46.986Z,14.35
2023-10-02T19:26:16.090Z,12.07
2023-10-02T19:28:44.602Z,11.40
2023-10-02T19:31:13.736Z,16.42
2023-10-02T19:33:42.762Z,7.40
2023-10-02T19:36:11.586Z,15.70
2023-10-02T19:38:44.135Z,10.48
2023-10-02T19:41:16.040Z,11.18
2023-10-02T19:43:45.264Z,11.70
2023-10-02T19:46:14.204Z,17.98
2023-10-02T19:48:43.214Z,13.20
2023-10-02T19:51:14.986Z,17.92
2023-10-02T19:53:45.752Z,9.65
2023-10-02T19:56:15.364Z,20.92
2023-10-02T19:58:43.743Z,10.98
2023-10-02T20:01:12.834Z,11.10
2023-10-02T20:03:41.722Z,9.38
2023-10-02T20:06:11.939Z,10.23
2023-10-02T20:08:42.419Z,8.90
2023-10-02T20:13:41.905Z,14.20
2023-10-02T20:16:10.908Z,10.18
2023-10-02T20:18:39.799Z,14.05
2023-10-02T20:21:08.876Z,10.48
2023-10-02T20:23:51.531Z,12.75
2023-10-02T20:26:22.421Z,9.57
2023-10-02T20:31:19.762Z,12.43
2023-10-02T20:33:49.402Z,14.38
2023-10-02T20:36:18.279Z,13.30
2023-10-02T20:38:47.042Z,12.00
2023-10-02T20:41:15.876Z,10.27
2023-10-02T20:43:45.561Z,12.93
2023-10-02T20:46:15.429Z,10.25
2023-10-02T20:48:44.405Z,15.77
2023-10-02T20:51:15.522Z,14.50
2023-10-02T20:53:45.121Z,18.90
2023-10-02T20:56:14.097Z,12.85
2023-10-02T20:58:42.442Z,11.57
2023-10-02T21:01:14.307Z,10.93
2023-10-02T21:03:43.998Z,11.80
2023-10-02T21:06:12.844Z,22.50
2023-10-02T21:08:41.817Z,14.02
2023-10-02T21:11:10.588Z,11.32
2023-10-02T21:13:39.035Z,10.45
2023-10-02T21:16:07.787Z,14.63
2023-10-02T21:18:39.018Z,15.00
2023-10-02T21:21:08.830Z,12.80
2023-10-02T21:23:38.908Z,10.27
2023-10-02T21:26:08.328Z,11.38
2023-10-02T21:28:37.016Z,14.00
2023-10-02T21:31:05.821Z,21.10
2023-10-02T21:33:34.738Z,16.02
2023-10-02T21:36:07.095Z,13.32
2023-10-02T21:38:36.825Z,14.00
2023-10-02T21:41:12.526Z,13.50
2023-10-02T21:43:41.682Z,17.40
2023-10-02T21:46:10.793Z,13.68
2023-10-02T21:48:40.631Z,12.52
2023-10-02T21:51:12.253Z,11.15
2023-10-02T21:53:41.845Z,9.73
2023-10-02T21:56:17.220Z,12.75
2023-10-02T21:58:45.964Z,11.13
2023-10-02T22:01:14.869Z,10.35
2023-10-02T22:03:44.142Z,15.20
2023-10-02T22:06:14.557Z,11.77
2023-10-02T22:08:43.433Z,14.02
2023-10-02T22:11:12.303Z,11.88
2023-10-02T22:13:42.069Z,12.63
2023-10-02T22:16:13.359Z,12.95
2023-10-02T22:18:43.818Z,11.30
2023-10-02T22:21:21.310Z,10.75
2023-10-02T22:23:50.927Z,22.83
2023-10-02T22:26:21.002Z,14.23
2023-10-02T22:28:49.416Z,12.38
2023-10-02T22:31:18.321Z,12.25
2023-10-02T22:33:48.524Z,10.25
2023-10-02T22:36:18.992Z,10.23
2023-10-02T22:41:16.571Z,13.13
2023-10-02T22:43:45.003Z,11.05
2023-10-02T22:46:13.793Z,13.75
2023-10-02T22:48:42.593Z,9.93
2023-10-02T22:51:14.403Z,10.52
2023-10-02T22:53:45.434Z,11.18
2023-10-02T22:56:14.963Z,10.73
2023-10-02T22:58:43.877Z,11.52
2023-10-02T23:01:12.766Z,10.00
2023-10-02T23:03:41.703Z,7.75
2023-10-02T23:06:12.321Z,11.55
2023-10-02T23:08:41.364Z,8.73
2023-10-02T23:11:15.200Z,10.90
2023-10-02T23:13:43.623Z,10.68
2023-10-02T23:16:13.388Z,11.45
2023-10-02T23:18:42.238Z,8.82
2023-10-02T23:21:11.037Z,12.85
2023-10-02T23:23:40.921Z,11.60
2023-10-02T23:26:18.650Z,10.48
2023-10-02T23:28:47.758Z,10.93
2023-10-02T23:31:16.594Z,11.95
2023-10-02T23:33:46.113Z,10.85
2023-10-02T23:36:14.970Z,10.97
2023-10-02T23:38:44.331Z,13.93
2023-10-02T23:41:14.034Z,10.87
2023-10-02T23:43:46.269Z,11.77
2023-10-02T23:46:16.306Z,10.88
2023-10-02T23:48:46.715Z,9.85
2023-10-02T23:51:15.619Z,8.77
2023-10-02T23:53:43.409Z,10.88
2023-10-02T23:56:15.270Z,9.82
2023-10-02T23:58:45.579Z,11.48
